Time;durP1;ratioP1;P1;durP2;ratioP2;P2;SDS_P1;SDS_P2;PMS_P1;PMS_P2;Temp;Humidity;BMP_temperature;BMP_pressure;BME280_temperature;BME280_humidity;BME280_pressure;Samples;Min_cycle;Max_cycle;Signal;HPM_P1;HPM_P2
2022/04/03 00:01:30;;;;;;;;;14.75;13.25;;;;;;;;5075644;28;45363;-56
2022/04/03 00:03:55;;;;;;;;;15.00;15.00;;;;;;;;5074172;27;45486;-55
2022/04/03 00:06:22;;;;;;;;;15.00;14.50;;;;;;;;5074107;28;45534;-55
2022/04/03 00:08:47;;;;;;;;;18.75;15.00;;;;;;;;5056835;28;47721;-55
2022/04/03 00:11:12;;;;;;;;;18.50;17.00;;;;;;;;5073343;28;46173;-55
2022/04/03 00:13:37;;;;;;;;;18.75;16.25;;;;;;;;5076690;27;45490;-55
2022/04/03 00:16:03;;;;;;;;;18.00;16.25;;;;;;;;5074629;28;45504;-55
2022/04/03 00:18:29;;;;;;;;;17.00;15.00;;;;;;;;5074109;27;45486;-54
2022/04/03 00:20:54;;;;;;;;;19.00;19.00;;;;;;;;5076175;27;45365;-55
2022/04/03 00:23:23;;;;;;;;;18.00;15.25;;;;;;;;5074686;28;45435;-54
2022/04/03 00:25:48;;;;;;;;;17.00;15.75;;;;;;;;5076943;28;45211;-55
2022/04/03 00:28:13;;;;;;;;;16.75;16.25;;;;;;;;5064021;28;46370;-54
2022/04/03 00:30:40;;;;;;;;;18.50;16.75;;;;;;;;5075411;27;45438;-55
2022/04/03 00:33:06;;;;;;;;;19.00;17.75;;;;;;;;5078412;27;45387;-54
2022/04/03 00:35:32;;;;;;;;;14.25;14.25;;;;;;;;5078398;27;45479;-55
2022/04/03 00:37:57;;;;;;;;;18.50;16.50;;;;;;;;5078206;27;46428;-55
2022/04/03 00:40:26;;;;;;;;;16.00;14.25;;;;;;;;5077489;27;45312;-55
2022/04/03 00:42:51;;;;;;;;;16.75;16.00;;;;;;;;5077002;27;45351;-55
2022/04/03 00:45:17;;;;;;;;;16.50;15.50;;;;;;;;5076760;27;45319;-54
2022/04/03 00:47:42;;;;;;;;;13.75;13.75;;;;;;;;5075363;28;47860;-54
2022/04/03 00:50:07;;;;;;;;;16.50;14.25;;;;;;;;5075837;28;45577;-54
2022/04/03 00:52:33;;;;;;;;;14.00;13.50;;;;;;;;5077495;28;45213;-55
2022/04/03 00:54:58;;;;;;;;;19.00;19.00;;;;;;;;5076615;28;45324;-54
2022/04/03 00:57:24;;;;;;;;;14.25;14.25;;;;;;;;5076402;28;46662;-55
2022/04/03 00:59:50;;;;;;;;;17.50;17.00;;;;;;;;5076631;27;45588;-54
2022/04/03 01:02:16;;;;;;;;;13.00;12.00;;;;;;;;5075432;28;45428;-55
2022/04/03 01:04:41;;;;;;;;;16.50;14.25;;;;;;;;5076847;28;45548;-54
2022/04/03 01:07:07;;;;;;;;;16.25;14.75;;;;;;;;5075120;28;48415;-53
2022/04/03 01:09:32;;;;;;;;;14.00;14.00;;;;;;;;5076331;27;45421;-54
2022/04/03 01:11:57;;;;;;;;;14.00;14.00;;;;;;;;5075153;28;45249;-53
2022/04/03 01:14:29;;;;;;;;;15.75;15.75;;;;;;;;5076385;27;45328;-54
2022/04/03 01:16:54;;;;;;;;;13.00;13.00;;;;;;;;5074976;28;48392;-54
2022/04/03 01:19:20;;;;;;;;;18.75;16.75;;;;;;;;5075422;28;45547;-54
2022/04/03 01:21:45;;;;;;;;;16.00;13.25;;;;;;;;5067416;28;45474;-53
2022/04/03 01:24:20;;;;;;;;;14.25;14.25;;;;;;;;5067587;28;45450;-53
2022/04/03 01:26:46;;;;;;;;;16.25;15.25;;;;;;;;5076057;28;45792;-55
2022/04/03 01:29:11;;;;;;;;;14.75;14.75;;;;;;;;5074753;28;45566;-55
2022/04/03 01:31:36;;;;;;;;;14.50;14.50;;;;;;;;5075804;28;45373;-56
2022/04/03 01:34:01;;;;;;;;;16.50;15.25;;;;;;;;5076153;27;45262;-56
2022/04/03 01:36:27;;;;;;;;;17.00;14.50;;;;;;;;5075868;28;45390;-55
2022/04/03 01:38:52;;;;;;;;;13.25;13.25;;;;;;;;5075909;28;45462;-56
2022/04/03 01:41:17;;;;;;;;;9.25;9.00;;;;;;;;5076559;28;45455;-56
2022/04/03 01:43:42;;;;;;;;;14.00;13.25;;;;;;;;5075160;28;45403;-54
2022/04/03 01:46:08;;;;;;;;;18.00;13.75;;;;;;;;5076082;27;47128;-56
2022/04/03 01:48:33;;;;;;;;;12.75;12.25;;;;;;;;5075652;28;45431;-55
2022/04/03 01:50:58;;;;;;;;;6.00;6.00;;;;;;;;5074778;28;45480;-57
2022/04/03 01:53:25;;;;;;;;;18.00;14.00;;;;;;;;5076027;28;45375;-55
2022/04/03 01:56:00;;;;;;;;;15.25;13.75;;;;;;;;5075970;28;46491;-55
2022/04/03 01:58:26;;;;;;;;;14.25;12.50;;;;;;;;5075255;28;45371;-55
2022/04/03 02:00:51;;;;;;;;;16.50;14.75;;;;;;;;5074381;28;45456;-55
2022/04/03 02:03:17;;;;;;;;;17.50;15.50;;;;;;;;5075675;28;45403;-54
2022/04/03 02:05:43;;;;;;;;;17.75;14.50;;;;;;;;5075537;27;46484;-55
2022/04/03 02:08:08;;;;;;;;;16.25;13.75;;;;;;;;5075082;28;45459;-55
2022/04/03 02:10:33;;;;;;;;;13.00;13.00;;;;;;;;5076172;28;45375;-55
2022/04/03 02:12:58;;;;;;;;;17.75;17.00;;;;;;;;5074235;28;45678;-55
2022/04/03 02:15:23;;;;;;;;;9.00;7.00;;;;;;;;5075495;28;45695;-55
2022/04/03 02:17:49;;;;;;;;;13.50;13.50;;;;;;;;5075571;28;45490;-57
2022/04/03 02:20:14;;;;;;;;;16.75;14.25;;;;;;;;5075611;27;47706;-57
2022/04/03 02:22:40;;;;;;;;;14.00;13.50;;;;;;;;5075807;28;45223;-56
2022/04/03 02:25:09;;;;;;;;;14.75;12.75;;;;;;;;5075730;28;45533;-56
2022/04/03 02:27:34;;;;;;;;;16.50;16.00;;;;;;;;5075170;27;45577;-56
2022/04/03 02:30:00;;;;;;;;;12.50;12.50;;;;;;;;5075329;27;45502;-55
2022/04/03 02:32:25;;;;;;;;;13.00;13.00;;;;;;;;5074000;28;45323;-55
2022/04/03 02:34:51;;;;;;;;;15.00;14.25;;;;;;;;5075029;28;46678;-56
2022/04/03 02:37:16;;;;;;;;;14.75;13.25;;;;;;;;5074592;27;45377;-56
2022/04/03 02:39:41;;;;;;;;;14.50;14.25;;;;;;;;5075432;28;45412;-56
2022/04/03 02:42:07;;;;;;;;;20.25;16.25;;;;;;;;5075220;27;45435;-56
2022/04/03 02:44:32;;;;;;;;;16.25;13.00;;;;;;;;5073685;28;48659;-55
2022/04/03 02:46:57;;;;;;;;;17.25;13.50;;;;;;;;5074936;28;45376;-55
2022/04/03 02:49:23;;;;;;;;;13.00;11.50;;;;;;;;5075773;28;45220;-55
2022/04/03 02:51:50;;;;;;;;;14.25;13.25;;;;;;;;5074970;27;45486;-55
2022/04/03 02:54:15;;;;;;;;;18.50;13.50;;;;;;;;5056801;28;46694;-56
2022/04/03 02:56:40;;;;;;;;;13.50;12.00;;;;;;;;5074794;28;45493;-55
2022/04/03 02:59:06;;;;;;;;;14.50;13.00;;;;;;;;5073791;28;45396;-55
2022/04/03 03:01:31;;;;;;;;;16.00;13.50;;;;;;;;5075643;27;45345;-56
2022/04/03 03:03:56;;;;;;;;;17.00;17.00;;;;;;;;5071200;28;46136;-55
2022/04/03 03:06:21;;;;;;;;;13.50;13.50;;;;;;;;5074142;28;45306;-55
2022/04/03 03:08:47;;;;;;;;;13.00;13.00;;;;;;;;5074743;28;45319;-56
2022/04/03 03:11:12;;;;;;;;;12.25;12.25;;;;;;;;5074810;28;45318;-55
2022/04/03 03:13:37;;;;;;;;;12.75;12.00;;;;;;;;5075097;28;45294;-55
2022/04/03 03:16:03;;;;;;;;;10.75;10.50;;;;;;;;5073451;28;46101;-55
2022/04/03 03:18:28;;;;;;;;;14.75;13.75;;;;;;;;5074767;27;45357;-55
2022/04/03 03:20:53;;;;;;;;;17.00;15.25;;;;;;;;5071269;28;45360;-56
2022/04/03 03:23:19;;;;;;;;;12.00;12.00;;;;;;;;5058790;28;48534;-55
2022/04/03 03:25:45;;;;;;;;;15.00;15.00;;;;;;;;5074875;28;45221;-55
2022/04/03 03:28:11;;;;;;;;;13.75;13.75;;;;;;;;5061839;28;45873;-57
2022/04/03 03:30:36;;;;;;;;;13.25;11.75;;;;;;;;5062870;28;45471;-56
2022/04/03 03:33:01;;;;;;;;;12.75;12.75;;;;;;;;5044685;28;46508;-57
2022/04/03 03:35:26;;;;;;;;;15.25;12.25;;;;;;;;5061095;28;45434;-56
2022/04/03 03:37:52;;;;;;;;;16.00;15.50;;;;;;;;5073625;28;45318;-55
2022/04/03 03:40:17;;;;;;;;;15.00;12.75;;;;;;;;5075060;28;45348;-55
2022/04/03 03:42:42;;;;;;;;;13.75;12.50;;;;;;;;5072968;28;46082;-55
2022/04/03 03:45:09;;;;;;;;;12.25;10.00;;;;;;;;5072994;28;45546;-56
2022/04/03 03:47:34;;;;;;;;;12.00;12.00;;;;;;;;5075425;27;45511;-56
2022/04/03 03:49:59;;;;;;;;;13.00;13.00;;;;;;;;5078002;28;45487;-55
2022/04/03 03:52:24;;;;;;;;;15.25;13.00;;;;;;;;5077110;28;47696;-56
2022/04/03 03:54:51;;;;;;;;;15.00;14.00;;;;;;;;5077694;28;45586;-55
2022/04/03 03:57:17;;;;;;;;;15.25;13.00;;;;;;;;5077732;27;45613;-56
2022/04/03 03:59:43;;;;;;;;;16.50;13.50;;;;;;;;5076768;28;45397;-56
2022/04/03 04:02:08;;;;;;;;;8.00;8.00;;;;;;;;5077816;27;46284;-55
2022/04/03 04:04:34;;;;;;;;;11.25;11.25;;;;;;;;5078193;28;45403;-55
2022/04/03 04:06:59;;;;;;;;;14.75;13.00;;;;;;;;5077699;27;45317;-55
2022/04/03 04:09:24;;;;;;;;;14.00;11.25;;;;;;;;5076224;28;45552;-54
2022/04/03 04:11:50;;;;;;;;;11.25;11.25;;;;;;;;5077179;27;45594;-54
2022/04/03 04:14:15;;;;;;;;;10.25;10.25;;;;;;;;5076386;28;45415;-55
2022/04/03 04:16:42;;;;;;;;;14.75;12.25;;;;;;;;5077790;28;45375;-55
2022/04/03 04:19:07;;;;;;;;;11.75;11.75;;;;;;;;5077619;28;45436;-55
2022/04/03 04:21:33;;;;;;;;;11.00;11.00;;;;;;;;5077119;28;46546;-55
2022/04/03 04:23:58;;;;;;;;;12.25;11.25;;;;;;;;5077210;28;45455;-55
2022/04/03 04:26:23;;;;;;;;;13.50;12.75;;;;;;;;5077473;27;45405;-54
2022/04/03 04:28:50;;;;;;;;;13.50;12.00;;;;;;;;5077563;28;45482;-55
2022/04/03 04:31:15;;;;;;;;;12.25;12.25;;;;;;;;5077673;27;46413;-55
2022/04/03 04:33:41;;;;;;;;;17.00;12.00;;;;;;;;5060100;28;45377;-55
2022/04/03 04:36:07;;;;;;;;;11.00;9.50;;;;;;;;5077395;27;45466;-54
2022/04/03 04:38:32;;;;;;;;;14.50;13.00;;;;;;;;5077232;27;45473;-55
2022/04/03 04:40:57;;;;;;;;;7.00;7.00;;;;;;;;5075780;28;45829;-55
2022/04/03 04:43:22;;;;;;;;;11.00;11.00;;;;;;;;5076466;28;45482;-56
2022/04/03 04:45:48;;;;;;;;;11.25;11.00;;;;;;;;5076819;28;45439;-55
2022/04/03 04:48:13;;;;;;;;;13.25;11.00;;;;;;;;5077005;28;45319;-55
2022/04/03 04:50:38;;;;;;;;;7.75;7.75;;;;;;;;5076845;28;45661;-55
2022/04/03 04:53:03;;;;;;;;;10.00;10.00;;;;;;;;5076909;28;45541;-54
2022/04/03 04:55:29;;;;;;;;;13.75;11.25;;;;;;;;5077559;27;45363;-55
2022/04/03 04:57:55;;;;;;;;;10.75;10.75;;;;;;;;5076743;28;45537;-55
2022/04/03 05:00:22;;;;;;;;;11.50;10.25;;;;;;;;5075826;27;45911;-55
2022/04/03 05:02:48;;;;;;;;;9.25;7.50;;;;;;;;5075396;28;46172;-55
2022/04/03 05:05:14;;;;;;;;;10.75;10.75;;;;;;;;5075509;28;45471;-55
2022/04/03 05:07:40;;;;;;;;;15.25;12.75;;;;;;;;5077642;28;45321;-54
2022/04/03 05:10:06;;;;;;;;;12.50;11.25;;;;;;;;5075853;28;48840;-54
2022/04/03 05:12:31;;;;;;;;;9.25;9.25;;;;;;;;5076397;27;45444;-54
2022/04/03 05:14:57;;;;;;;;;10.75;10.75;;;;;;;;5076554;27;45917;-55
2022/04/03 05:17:22;;;;;;;;;13.00;13.00;;;;;;;;5075300;28;45331;-53
2022/04/03 05:19:47;;;;;;;;;12.50;12.50;;;;;;;;5076296;28;45822;-53
2022/04/03 05:22:12;;;;;;;;;16.25;11.50;;;;;;;;5077005;28;45470;-53
2022/04/03 05:24:38;;;;;;;;;15.25;12.75;;;;;;;;5074988;28;45501;-54
2022/04/03 05:27:05;;;;;;;;;14.50;12.25;;;;;;;;5076280;27;45497;-54
2022/04/03 05:29:31;;;;;;;;;12.00;11.00;;;;;;;;5076367;27;46052;-55
2022/04/03 05:31:56;;;;;;;;;12.00;11.00;;;;;;;;5074913;28;45510;-55
2022/04/03 05:34:21;;;;;;;;;13.00;12.75;;;;;;;;5076821;27;45312;-54
2022/04/03 05:36:47;;;;;;;;;14.25;13.75;;;;;;;;5076269;27;45492;-54
2022/04/03 05:39:12;;;;;;;;;12.75;11.50;;;;;;;;5074327;28;45572;-54
2022/04/03 05:41:38;;;;;;;;;14.50;11.25;;;;;;;;5075887;27;45506;-54
2022/04/03 05:44:04;;;;;;;;;14.00;11.50;;;;;;;;5074743;28;45488;-54
2022/04/03 05:46:29;;;;;;;;;14.00;14.00;;;;;;;;5076476;27;45372;-54
2022/04/03 05:48:54;;;;;;;;;16.00;14.00;;;;;;;;5075693;27;45691;-53
2022/04/03 05:51:19;;;;;;;;;16.75;15.75;;;;;;;;5075943;28;45421;-55
2022/04/03 05:53:45;;;;;;;;;12.75;11.25;;;;;;;;5075972;28;45316;-54
2022/04/03 05:56:11;;;;;;;;;16.00;14.50;;;;;;;;5076019;27;45407;-55
2022/04/03 05:58:36;;;;;;;;;10.75;10.00;;;;;;;;5076063;28;45693;-54
2022/04/03 06:01:02;;;;;;;;;11.75;10.75;;;;;;;;5075763;27;45445;-55
2022/04/03 06:03:27;;;;;;;;;11.75;11.25;;;;;;;;5074443;28;45458;-54
2022/04/03 06:05:52;;;;;;;;;16.00;13.75;;;;;;;;5075783;28;45410;-54
2022/04/03 06:08:18;;;;;;;;;17.00;13.25;;;;;;;;5073923;28;48156;-54
2022/04/03 06:10:43;;;;;;;;;20.25;14.75;;;;;;;;5074905;28;45364;-54
2022/04/03 06:13:09;;;;;;;;;13.00;11.75;;;;;;;;5090355;27;45424;-55
2022/04/03 06:15:36;;;;;;;;;12.25;11.75;;;;;;;;5075407;28;45401;-55
2022/04/03 06:18:03;;;;;;;;;12.25;12.25;;;;;;;;5075278;28;45697;-55
2022/04/03 06:20:29;;;;;;;;;11.25;11.25;;;;;;;;5075530;27;45467;-55
2022/04/03 06:22:54;;;;;;;;;13.25;12.75;;;;;;;;5075501;28;45171;-55
2022/04/03 06:25:20;;;;;;;;;13.75;12.00;;;;;;;;5076099;27;45496;-55
2022/04/03 06:27:45;;;;;;;;;11.75;11.00;;;;;;;;5064621;28;47037;-55
2022/04/03 06:30:11;;;;;;;;;13.25;11.00;;;;;;;;5063757;28;45443;-55
2022/04/03 06:32:36;;;;;;;;;13.00;11.00;;;;;;;;5062350;28;45436;-54
2022/04/03 06:35:02;;;;;;;;;11.50;11.00;;;;;;;;5058927;27;45380;-55
2022/04/03 06:37:27;;;;;;;;;11.25;11.00;;;;;;;;5074565;28;47592;-54
2022/04/03 06:39:52;;;;;;;;;12.00;11.00;;;;;;;;5075160;28;45378;-54
2022/04/03 06:42:17;;;;;;;;;12.75;10.25;;;;;;;;5075190;28;45343;-55
2022/04/03 06:44:43;;;;;;;;;16.00;13.00;;;;;;;;5073703;28;45690;-54
2022/04/03 06:47:09;;;;;;;;;13.75;10.75;;;;;;;;5073736;28;47525;-55
2022/04/03 06:49:35;;;;;;;;;10.25;8.75;;;;;;;;5054192;28;45551;-55
2022/04/03 06:52:00;;;;;;;;;14.50;14.50;;;;;;;;5074728;28;45516;-55
2022/04/03 06:54:26;;;;;;;;;12.25;11.00;;;;;;;;5075280;28;45439;-55
2022/04/03 06:56:52;;;;;;;;;12.00;12.00;;;;;;;;5075620;27;45627;-55
2022/04/03 06:59:17;;;;;;;;;16.00;14.75;;;;;;;;5074922;27;45288;-55
2022/04/03 07:01:42;;;;;;;;;11.25;11.25;;;;;;;;5074097;28;45332;-55
2022/04/03 07:04:07;;;;;;;;;11.00;11.00;;;;;;;;5074149;28;45535;-54
2022/04/03 07:06:32;;;;;;;;;15.75;12.25;;;;;;;;5074643;28;45648;-55
2022/04/03 07:08:58;;;;;;;;;10.50;10.50;;;;;;;;5074803;28;45469;-55
2022/04/03 07:11:23;;;;;;;;;14.00;12.25;;;;;;;;5073517;28;45452;-54
2022/04/03 07:13:49;;;;;;;;;12.75;10.75;;;;;;;;5074947;28;45328;-54
2022/04/03 07:16:14;;;;;;;;;10.00;10.00;;;;;;;;5073747;28;47442;-54
2022/04/03 07:18:39;;;;;;;;;12.25;12.25;;;;;;;;5073319;28;45432;-55
2022/04/03 07:21:04;;;;;;;;;9.25;9.25;;;;;;;;5074864;28;45483;-55
2022/04/03 07:23:30;;;;;;;;;12.75;12.75;;;;;;;;5077264;28;45194;-55
2022/04/03 07:25:55;;;;;;;;;12.00;10.75;;;;;;;;5076897;28;46269;-55
2022/04/03 07:28:20;;;;;;;;;15.50;14.25;;;;;;;;5060650;28;45385;-55
2022/04/03 07:30:45;;;;;;;;;23.25;20.00;;;;;;;;5078268;28;45384;-54
2022/04/03 07:33:10;;;;;;;;;18.75;17.75;;;;;;;;5078078;28;45376;-54
2022/04/03 07:35:37;;;;;;;;;18.25;14.25;;;;;;;;5076688;28;47284;-53
2022/04/03 07:38:02;;;;;;;;;11.50;11.50;;;;;;;;5078141;28;45324;-54
2022/04/03 07:40:27;;;;;;;;;15.50;11.00;;;;;;;;5079286;27;45418;-54
2022/04/03 07:42:53;;;;;;;;;11.25;9.25;;;;;;;;5077334;28;45373;-54
2022/04/03 07:45:18;;;;;;;;;16.25;12.00;;;;;;;;5077852;28;45464;-55
2022/04/03 07:47:44;;;;;;;;;11.75;11.25;;;;;;;;5077843;27;45435;-54
2022/04/03 07:50:10;;;;;;;;;13.00;11.50;;;;;;;;5078088;27;45463;-54
2022/04/03 07:52:35;;;;;;;;;10.75;9.25;;;;;;;;5077457;28;45384;-54
2022/04/03 07:55:01;;;;;;;;;12.75;11.50;;;;;;;;5077838;28;45625;-55
2022/04/03 07:57:26;;;;;;;;;12.25;11.25;;;;;;;;5077722;28;45395;-55
2022/04/03 07:59:51;;;;;;;;;8.75;8.75;;;;;;;;5077893;27;45440;-54
2022/04/03 08:02:16;;;;;;;;;8.25;6.25;;;;;;;;5077997;28;45490;-55
2022/04/03 08:04:41;;;;;;;;;9.50;7.75;;;;;;;;5077910;28;46639;-54
2022/04/03 08:07:07;;;;;;;;;8.50;7.50;;;;;;;;5077526;27;45486;-54
2022/04/03 08:09:32;;;;;;;;;7.50;6.25;;;;;;;;5077492;28;49571;-54
2022/04/03 08:11:57;;;;;;;;;9.75;7.25;;;;;;;;5076863;28;45565;-55
2022/04/03 08:14:22;;;;;;;;;9.00;7.75;;;;;;;;5071970;28;45671;-55
2022/04/03 08:16:48;;;;;;;;;10.50;8.50;;;;;;;;5068040;27;45393;-55
2022/04/03 08:19:13;;;;;;;;;8.50;8.50;;;;;;;;5068955;28;45472;-53
2022/04/03 08:21:38;;;;;;;;;8.50;7.50;;;;;;;;5068275;28;45548;-56
2022/04/03 08:24:04;;;;;;;;;6.75;6.75;;;;;;;;5067942;28;45651;-55
2022/04/03 08:26:29;;;;;;;;;5.50;5.50;;;;;;;;5068029;28;45452;-56
2022/04/03 08:28:54;;;;;;;;;5.75;5.75;;;;;;;;5072359;27;45434;-57
2022/04/03 08:31:23;;;;;;;;;7.00;7.00;;;;;;;;5070254;27;45291;-57
2022/04/03 08:33:48;;;;;;;;;8.00;8.00;;;;;;;;5065835;27;47604;-56
2022/04/03 08:36:15;;;;;;;;;4.50;4.50;;;;;;;;5068495;27;46061;-56
2022/04/03 08:38:40;;;;;;;;;7.50;7.25;;;;;;;;5067976;27;45478;-53
2022/04/03 08:41:05;;;;;;;;;6.50;6.50;;;;;;;;5066691;27;45326;-55
2022/04/03 08:43:33;;;;;;;;;4.50;4.50;;;;;;;;5086121;27;47356;-54
2022/04/03 08:46:00;;;;;;;;;9.25;8.75;;;;;;;;5079232;27;45401;-54
2022/04/03 08:48:26;;;;;;;;;9.25;8.25;;;;;;;;5078043;27;45421;-54
2022/04/03 08:50:54;;;;;;;;;4.50;4.50;;;;;;;;5087120;27;45474;-55
2022/04/03 08:53:25;;;;;;;;;5.25;4.25;;;;;;;;5076570;27;45702;-54
2022/04/03 08:55:51;;;;;;;;;7.75;5.00;;;;;;;;5087609;27;45589;-55
2022/04/03 08:58:17;;;;;;;;;5.00;4.00;;;;;;;;5078659;27;45358;-55
2022/04/03 09:00:42;;;;;;;;;4.00;4.00;;;;;;;;5080359;27;45449;-55
2022/04/03 09:03:08;;;;;;;;;4.75;3.00;;;;;;;;5084432;27;46349;-55
2022/04/03 09:05:37;;;;;;;;;4.00;4.00;;;;;;;;5068992;27;45581;-56
2022/04/03 09:08:03;;;;;;;;;5.50;4.50;;;;;;;;5080086;27;45420;-56
2022/04/03 09:10:28;;;;;;;;;4.00;4.00;;;;;;;;5073164;27;45798;-57
2022/04/03 09:12:54;;;;;;;;;1.75;1.75;;;;;;;;5077957;27;45548;-58
2022/04/03 09:15:20;;;;;;;;;2.25;1.50;;;;;;;;5081140;27;45787;-57
2022/04/03 09:17:48;;;;;;;;;3.25;2.25;;;;;;;;5075958;27;45547;-57
2022/04/03 09:20:15;;;;;;;;;3.25;3.25;;;;;;;;5082812;27;45553;-55
2022/04/03 09:22:42;;;;;;;;;4.25;4.00;;;;;;;;5075386;27;46628;-56
2022/04/03 09:25:11;;;;;;;;;4.00;4.00;;;;;;;;5076531;27;45498;-56
2022/04/03 09:27:46;;;;;;;;;4.00;3.00;;;;;;;;5077694;27;45379;-57
2022/04/03 09:30:11;;;;;;;;;5.00;4.00;;;;;;;;5075101;27;45525;-57
2022/04/03 09:32:47;;;;;;;;;3.75;3.75;;;;;;;;5077464;27;45838;-57
2022/04/03 09:35:13;;;;;;;;;3.00;3.00;;;;;;;;5062382;27;45778;-56
2022/04/03 09:37:38;;;;;;;;;3.00;3.00;;;;;;;;5086881;27;45374;-56
2022/04/03 09:40:03;;;;;;;;;5.00;5.00;;;;;;;;5076560;27;45589;-56
2022/04/03 09:42:29;;;;;;;;;3.50;3.50;;;;;;;;5078212;27;48667;-56
2022/04/03 09:44:55;;;;;;;;;4.25;3.00;;;;;;;;5081342;27;45815;-56
2022/04/03 09:47:30;;;;;;;;;2.50;2.50;;;;;;;;5075113;27;45850;-56
2022/04/03 09:50:05;;;;;;;;;2.50;2.50;;;;;;;;5062340;27;46348;-56
2022/04/03 09:52:34;;;;;;;;;5.50;4.00;;;;;;;;5079071;27;48096;-55
2022/04/03 09:55:01;;;;;;;;;4.00;4.00;;;;;;;;5077635;27;45380;-57
2022/04/03 09:57:26;;;;;;;;;2.00;2.00;;;;;;;;5080632;27;45493;-56
2022/04/03 09:59:54;;;;;;;;;1.00;1.00;;;;;;;;5074119;27;45958;-57
2022/04/03 10:02:24;;;;;;;;;3.00;3.00;;;;;;;;5080796;27;45464;-57
2022/04/03 10:04:51;;;;;;;;;2.00;2.00;;;;;;;;5074411;27;45966;-57
2022/04/03 10:07:17;;;;;;;;;2.50;2.50;;;;;;;;5066186;28;45453;-57
2022/04/03 10:09:46;;;;;;;;;1.00;1.00;;;;;;;;5071119;27;45437;-57
2022/04/03 10:12:16;;;;;;;;;3.25;3.25;;;;;;;;5069783;27;46719;-55
2022/04/03 10:14:42;;;;;;;;;3.25;3.25;;;;;;;;5071545;27;45688;-55
2022/04/03 10:17:08;;;;;;;;;2.00;2.00;;;;;;;;5072826;27;45375;-55
2022/04/03 10:19:33;;;;;;;;;2.25;1.25;;;;;;;;5091561;27;45601;-56
2022/04/03 10:21:59;;;;;;;;;1.00;1.00;;;;;;;;5072129;27;45643;-55
2022/04/03 10:24:25;;;;;;;;;1.25;1.25;;;;;;;;5073828;28;46210;-55
2022/04/03 10:27:05;;;;;;;;;2.50;2.50;;;;;;;;5072318;27;45442;-55
2022/04/03 10:29:33;;;;;;;;;2.00;2.00;;;;;;;;5072711;28;45589;-56
2022/04/03 10:32:00;;;;;;;;;3.00;3.00;;;;;;;;5072348;28;47987;-55
2022/04/03 10:34:26;;;;;;;;;5.00;4.00;;;;;;;;5074541;28;45286;-56
2022/04/03 10:36:51;;;;;;;;;4.50;4.00;;;;;;;;5071010;28;45494;-55
2022/04/03 10:39:27;;;;;;;;;4.00;3.25;;;;;;;;5072929;28;45495;-55
2022/04/03 10:42:11;;;;;;;;;8.25;6.75;;;;;;;;5071631;28;47067;-55
2022/04/03 10:44:36;;;;;;;;;3.00;3.00;;;;;;;;5073620;28;45463;-55
2022/04/03 10:47:01;;;;;;;;;3.00;3.00;;;;;;;;5072321;28;45480;-56
2022/04/03 10:49:36;;;;;;;;;6.75;6.00;;;;;;;;5072886;28;45873;-57
2022/04/03 10:52:02;;;;;;;;;2.00;2.00;;;;;;;;5073023;28;48735;-57
2022/04/03 10:54:31;;;;;;;;;2.00;2.00;;;;;;;;5072886;27;45497;-58
2022/04/03 10:57:15;;;;;;;;;4.25;3.25;;;;;;;;5079106;27;45408;-59
2022/04/03 10:59:40;;;;;;;;;4.50;4.00;;;;;;;;5078654;28;45722;-56
2022/04/03 11:02:14;;;;;;;;;5.25;3.00;;;;;;;;5078797;27;45942;-56
2022/04/03 11:04:40;;;;;;;;;2.50;2.50;;;;;;;;5077682;28;45431;-56
2022/04/03 11:07:12;;;;;;;;;6.00;6.00;;;;;;;;5076927;28;45432;-57
2022/04/03 11:09:40;;;;;;;;;7.00;5.50;;;;;;;;5078329;27;45484;-57
2022/04/03 11:12:05;;;;;;;;;2.75;2.75;;;;;;;;5078017;28;46155;-57
2022/04/03 11:14:52;;;;;;;;;2.75;2.75;;;;;;;;5079735;27;45212;-56
2022/04/03 11:17:18;;;;;;;;;4.75;4.75;;;;;;;;5063826;28;45387;-57
2022/04/03 11:19:44;;;;;;;;;3.50;3.50;;;;;;;;5078875;27;45527;-57
2022/04/03 11:22:12;;;;;;;;;6.50;5.50;;;;;;;;5077851;28;45858;-57
2022/04/03 11:24:37;;;;;;;;;12.50;12.50;;;;;;;;5076066;27;45439;-56
2022/04/03 11:27:04;;;;;;;;;4.25;4.25;;;;;;;;5080015;28;45506;-56
2022/04/03 11:29:29;;;;;;;;;7.75;7.00;;;;;;;;5079000;27;45309;-56
2022/04/03 11:31:56;;;;;;;;;4.50;3.00;;;;;;;;5081070;28;46248;-57
2022/04/03 11:34:26;;;;;;;;;3.75;2.75;;;;;;;;5080084;28;45474;-56
2022/04/03 11:36:55;;;;;;;;;3.00;3.00;;;;;;;;5078323;27;45331;-57
2022/04/03 11:39:21;;;;;;;;;4.50;4.50;;;;;;;;5079685;28;45447;-57
2022/04/03 11:41:50;;;;;;;;;3.00;3.00;;;;;;;;5079339;28;48374;-57
2022/04/03 11:44:18;;;;;;;;;3.00;3.00;;;;;;;;5079826;27;45325;-58
2022/04/03 11:46:45;;;;;;;;;3.75;3.75;;;;;;;;5079986;27;45217;-58
2022/04/03 11:49:11;;;;;;;;;2.00;2.00;;;;;;;;5082373;27;45489;-57
2022/04/03 11:51:36;;;;;;;;;2.00;2.00;;;;;;;;5082248;27;46069;-59
2022/04/03 11:54:01;;;;;;;;;2.75;2.75;;;;;;;;5082218;27;45384;-58
2022/04/03 11:56:35;;;;;;;;;5.25;4.00;;;;;;;;5083772;27;45553;-57
2022/04/03 11:59:01;;;;;;;;;4.75;4.00;;;;;;;;5082712;27;45602;-58
2022/04/03 12:01:27;;;;;;;;;2.00;2.00;;;;;;;;5081410;27;45964;-57
2022/04/03 12:04:09;;;;;;;;;3.50;2.75;;;;;;;;5082239;27;45797;-56
2022/04/03 12:06:35;;;;;;;;;8.00;5.75;;;;;;;;5081952;27;45234;-56
2022/04/03 12:09:03;;;;;;;;;3.50;3.50;;;;;;;;5080711;27;45491;-57
2022/04/03 12:11:29;;;;;;;;;7.50;5.25;;;;;;;;5078989;27;45682;-57
2022/04/03 12:13:56;;;;;;;;;4.25;4.25;;;;;;;;5078676;27;45418;-57
2022/04/03 12:16:23;;;;;;;;;1.00;1.00;;;;;;;;5077024;28;45377;-58
2022/04/03 12:18:48;;;;;;;;;6.00;4.00;;;;;;;;5077678;27;45384;-57
2022/04/03 12:21:13;;;;;;;;;3.50;3.50;;;;;;;;5078420;27;45473;-57
2022/04/03 12:23:38;;;;;;;;;5.00;5.00;;;;;;;;5076097;28;45434;-57
2022/04/03 12:26:03;;;;;;;;;2.50;2.50;;;;;;;;5076933;28;45509;-56
2022/04/03 12:28:29;;;;;;;;;3.00;3.00;;;;;;;;5076759;27;45380;-57
2022/04/03 12:30:59;;;;;;;;;4.00;4.00;;;;;;;;5075837;28;48781;-56
2022/04/03 12:33:24;;;;;;;;;4.00;4.00;;;;;;;;5077002;27;45401;-57
2022/04/03 12:35:49;;;;;;;;;6.00;5.00;;;;;;;;5077317;28;45413;-57
2022/04/03 12:38:14;;;;;;;;;3.50;3.50;;;;;;;;5076184;28;45550;-58
2022/04/03 12:40:46;;;;;;;;;5.00;4.00;;;;;;;;5077730;27;46030;-56
2022/04/03 12:43:12;;;;;;;;;4.00;4.00;;;;;;;;5079816;27;47002;-56
2022/04/03 12:45:37;;;;;;;;;5.00;4.00;;;;;;;;5073377;28;45482;-56
2022/04/03 12:48:03;;;;;;;;;4.00;4.00;;;;;;;;5077244;28;45383;-56
2022/04/03 12:50:40;;;;;;;;;4.25;4.00;;;;;;;;5077298;27;45590;-57
2022/04/03 12:53:07;;;;;;;;;3.00;3.00;;;;;;;;5077019;27;45287;-56
2022/04/03 12:55:33;;;;;;;;;3.25;3.25;;;;;;;;5076430;28;45370;-56
2022/04/03 13:00:42;;;;;;;;;4.00;4.00;;;;;;;;5076512;28;45502;-56
2022/04/03 13:03:08;;;;;;;;;5.00;4.00;;;;;;;;5076779;28;45328;-56
2022/04/03 13:05:33;;;;;;;;;3.00;3.00;;;;;;;;5075837;28;45452;-61
2022/04/03 13:08:07;;;;;;;;;4.25;3.00;;;;;;;;5075012;28;45488;-57
2022/04/03 13:10:33;;;;;;;;;5.00;3.25;;;;;;;;5076976;27;46679;-56
2022/04/03 13:12:58;;;;;;;;;4.00;4.00;;;;;;;;5076350;28;45360;-57
2022/04/03 13:15:23;;;;;;;;;5.00;5.00;;;;;;;;5076493;28;45475;-57
2022/04/03 13:17:49;;;;;;;;;5.00;4.00;;;;;;;;5076534;27;45471;-55
2022/04/03 13:20:14;;;;;;;;;6.75;5.75;;;;;;;;5076136;27;46270;-60
2022/04/03 13:22:39;;;;;;;;;6.50;4.00;;;;;;;;5072412;27;45408;-58
2022/04/03 13:25:05;;;;;;;;;4.00;4.00;;;;;;;;5074038;27;45498;-57
2022/04/03 13:27:30;;;;;;;;;5.25;4.00;;;;;;;;5074297;27;45488;-58
2022/04/03 13:29:57;;;;;;;;;5.00;5.00;;;;;;;;5085588;27;46510;-57
2022/04/03 13:32:22;;;;;;;;;4.50;4.50;;;;;;;;5073993;27;45522;-57
2022/04/03 13:34:47;;;;;;;;;6.50;4.75;;;;;;;;5086477;27;45328;-58
2022/04/03 13:37:13;;;;;;;;;3.75;3.75;;;;;;;;5074268;27;45478;-58
2022/04/03 13:39:39;;;;;;;;;6.25;4.00;;;;;;;;5077635;27;46147;-58
2022/04/03 13:42:08;;;;;;;;;1.75;1.75;;;;;;;;5085724;27;46024;-58
2022/04/03 13:44:33;;;;;;;;;6.00;4.00;;;;;;;;5076845;27;45435;-57
2022/04/03 13:46:58;;;;;;;;;4.00;4.00;;;;;;;;5085322;27;45414;-56
2022/04/03 13:49:24;;;;;;;;;4.50;4.50;;;;;;;;5077723;27;45308;-56
2022/04/03 13:51:50;;;;;;;;;4.00;4.00;;;;;;;;5080263;27;46038;-56
2022/04/03 13:54:16;;;;;;;;;6.00;4.75;;;;;;;;5082693;27;45397;-55
2022/04/03 13:56:41;;;;;;;;;6.25;6.25;;;;;;;;5075548;27;45325;-56
2022/04/03 13:59:06;;;;;;;;;6.00;6.00;;;;;;;;5084166;27;45978;-57
2022/04/03 14:01:33;;;;;;;;;6.75;6.00;;;;;;;;5077136;27;45431;-56
2022/04/03 14:03:58;;;;;;;;;5.00;5.00;;;;;;;;5074679;27;45666;-57
2022/04/03 14:06:24;;;;;;;;;8.75;7.50;;;;;;;;5082633;27;45535;-57
2022/04/03 14:08:49;;;;;;;;;5.50;5.50;;;;;;;;5076334;27;46704;-58
2022/04/03 14:11:14;;;;;;;;;6.00;5.00;;;;;;;;5083597;27;45412;-58
2022/04/03 14:13:41;;;;;;;;;5.50;4.25;;;;;;;;5081686;27;45542;-56
2022/04/03 14:16:06;;;;;;;;;8.00;7.50;;;;;;;;5080967;27;45435;-58
2022/04/03 14:18:31;;;;;;;;;6.75;6.75;;;;;;;;5079821;27;47654;-58
2022/04/03 14:20:57;;;;;;;;;5.25;5.25;;;;;;;;5057074;28;45518;-57
2022/04/03 14:23:24;;;;;;;;;6.25;6.25;;;;;;;;5083902;27;45428;-57
2022/04/03 14:25:49;;;;;;;;;5.50;5.00;;;;;;;;5076684;27;45363;-56